Arnolds Park, Iowa
Current Conditions -  °F | °C
As of 4:53 PM on Thursday 23 Oct 2014 (Local Time) from KSPW Reporting Station
Clear Clear  
Wind Chill: 69°   Ceiling: Unl
Heat Index: 69°   Visibility: 10mi
Dew Point: 42°   Wind: 10mph
Humidity: 38%   Direction: 250°WSW
Pressure: 29.98"   Gusts: NA
Location:  43.37°N, 95.12°W
Report Text: KSPW 232153Z AUTO 25009KT 10SM CLR 21/06 A2998 RMK AO2 SLP151 T02060056 TSNO
Loading
Personal Weather Stations






























Interactive Weather Map New forecast layout! Learn more

10-Day Weather Forecast

Advertisements
Track Severe Weather on mobile